sensor_id;sensor_type;location;lat;lon;timestamp;temperature;humidity
58261;DHT22;44058;52.898;6.502;2022-11-15T00:01:48;8.10;99.90
58261;DHT22;44058;52.898;6.502;2022-11-15T00:04:13;8.10;99.90
58261;DHT22;44058;52.898;6.502;2022-11-15T00:06:40;8.10;99.90
58261;DHT22;44058;52.898;6.502;2022-11-15T00:09:05;8.10;99.90
58261;DHT22;44058;52.898;6.502;2022-11-15T00:11:31;8.00;99.90
58261;DHT22;44058;52.898;6.502;2022-11-15T00:13:57;8.00;99.90
58261;DHT22;44058;52.898;6.502;2022-11-15T00:16:23;8.00;99.90
58261;DHT22;44058;52.898;6.502;2022-11-15T00:18:50;8.00;99.90
58261;DHT22;44058;52.898;6.502;2022-11-15T00:21:16;8.00;99.90
58261;DHT22;44058;52.898;6.502;2022-11-15T00:23:42;8.00;99.90
58261;DHT22;44058;52.898;6.502;2022-11-15T00:26:12;7.90;99.90
58261;DHT22;44058;52.898;6.502;2022-11-15T00:28:38;8.00;99.90
58261;DHT22;44058;52.898;6.502;2022-11-15T00:31:06;8.00;99.90
58261;DHT22;44058;52.898;6.502;2022-11-15T00:33:32;7.90;99.90
58261;DHT22;44058;52.898;6.502;2022-11-15T00:36:06;8.00;99.90
58261;DHT22;44058;52.898;6.502;2022-11-15T00:38:37;8.00;99.90
58261;DHT22;44058;52.898;6.502;2022-11-15T00:41:05;7.90;99.90
58261;DHT22;44058;52.898;6.502;2022-11-15T00:43:31;7.90;99.90
58261;DHT22;44058;52.898;6.502;2022-11-15T00:45:57;7.90;99.90
58261;DHT22;44058;52.898;6.502;2022-11-15T00:48:23;7.90;99.90
58261;DHT22;44058;52.898;6.502;2022-11-15T00:50:49;7.90;99.90
58261;DHT22;44058;52.898;6.502;2022-11-15T00:53:15;7.90;99.90
58261;DHT22;44058;52.898;6.502;2022-11-15T00:55:41;7.90;99.90
58261;DHT22;44058;52.898;6.502;2022-11-15T00:58:07;7.90;99.90
58261;DHT22;44058;52.898;6.502;2022-11-15T01:00:33;7.80;99.90
58261;DHT22;44058;52.898;6.502;2022-11-15T01:03:00;7.90;99.90
58261;DHT22;44058;52.898;6.502;2022-11-15T01:05:27;7.80;99.90
58261;DHT22;44058;52.898;6.502;2022-11-15T01:07:55;7.80;99.90
58261;DHT22;44058;52.898;6.502;2022-11-15T01:10:22;7.80;99.90
58261;DHT22;44058;52.898;6.502;2022-11-15T01:12:48;7.80;99.90
58261;DHT22;44058;52.898;6.502;2022-11-15T01:15:14;7.80;99.90
58261;DHT22;44058;52.898;6.502;2022-11-15T01:17:39;7.80;99.90
58261;DHT22;44058;52.898;6.502;2022-11-15T01:20:06;7.70;99.90
58261;DHT22;44058;52.898;6.502;2022-11-15T01:22:31;7.70;99.90
58261;DHT22;44058;52.898;6.502;2022-11-15T01:24:57;7.70;99.90
58261;DHT22;44058;52.898;6.502;2022-11-15T01:27:23;7.70;99.90
58261;DHT22;44058;52.898;6.502;2022-11-15T01:29:48;7.70;99.90
58261;DHT22;44058;52.898;6.502;2022-11-15T01:32:14;7.70;99.90
58261;DHT22;44058;52.898;6.502;2022-11-15T01:34:40;7.80;99.90
58261;DHT22;44058;52.898;6.502;2022-11-15T01:37:05;7.70;99.90
58261;DHT22;44058;52.898;6.502;2022-11-15T01:39:31;7.70;99.90
58261;DHT22;44058;52.898;6.502;2022-11-15T01:41:57;7.70;99.90
58261;DHT22;44058;52.898;6.502;2022-11-15T01:44:43;7.70;99.90
58261;DHT22;44058;52.898;6.502;2022-11-15T01:47:18;7.80;99.90
58261;DHT22;44058;52.898;6.502;2022-11-15T01:49:52;7.80;99.90
58261;DHT22;44058;52.898;6.502;2022-11-15T01:52:22;7.80;99.90
58261;DHT22;44058;52.898;6.502;2022-11-15T01:54:50;7.80;99.90
58261;DHT22;44058;52.898;6.502;2022-11-15T01:57:17;7.80;99.90
58261;DHT22;44058;52.898;6.502;2022-11-15T01:59:44;7.80;99.90
58261;DHT22;44058;52.898;6.502;2022-11-15T02:02:11;7.80;99.90
58261;DHT22;44058;52.898;6.502;2022-11-15T02:04:46;7.80;99.90
58261;DHT22;44058;52.898;6.502;2022-11-15T02:07:15;7.80;99.90
58261;DHT22;44058;52.898;6.502;2022-11-15T02:09:43;7.80;99.90
58261;DHT22;44058;52.898;6.502;2022-11-15T02:12:10;7.80;99.90
58261;DHT22;44058;52.898;6.502;2022-11-15T02:14:40;7.80;99.90
58261;DHT22;44058;52.898;6.502;2022-11-15T02:22:51;7.90;99.90
58261;DHT22;44058;52.898;6.502;2022-11-15T02:25:57;7.90;99.90
58261;DHT22;44058;52.898;6.502;2022-11-15T02:36:54;8.00;99.90
58261;DHT22;44058;52.898;6.502;2022-11-15T02:42:04;7.90;99.90
58261;DHT22;44058;52.898;6.502;2022-11-15T02:44:53;8.00;99.90
58261;DHT22;44058;52.898;6.502;2022-11-15T02:47:22;8.00;99.90
58261;DHT22;44058;52.898;6.502;2022-11-15T02:49:52;8.00;99.90
58261;DHT22;44058;52.898;6.502;2022-11-15T02:52:24;8.00;99.90
58261;DHT22;44058;52.898;6.502;2022-11-15T02:54:58;8.00;99.90
58261;DHT22;44058;52.898;6.502;2022-11-15T02:57:48;8.00;99.90
58261;DHT22;44058;52.898;6.502;2022-11-15T03:00:18;8.10;99.90
58261;DHT22;44058;52.898;6.502;2022-11-15T03:10:46;8.10;99.90
58261;DHT22;44058;52.898;6.502;2022-11-15T03:16:03;8.20;99.90
58261;DHT22;44058;52.898;6.502;2022-11-15T03:18:37;8.20;99.90
58261;DHT22;44058;52.898;6.502;2022-11-15T03:21:07;8.20;99.90
58261;DHT22;44058;52.898;6.502;2022-11-15T03:23:35;8.20;99.90
58261;DHT22;44058;52.898;6.502;2022-11-15T03:26:01;8.20;99.90
58261;DHT22;44058;52.898;6.502;2022-11-15T03:28:36;8.20;99.90
58261;DHT22;44058;52.898;6.502;2022-11-15T03:31:04;8.20;99.90
58261;DHT22;44058;52.898;6.502;2022-11-15T03:33:54;8.20;99.90
58261;DHT22;44058;52.898;6.502;2022-11-15T03:36:23;8.20;99.90
58261;DHT22;44058;52.898;6.502;2022-11-15T03:38:56;8.20;99.90
58261;DHT22;44058;52.898;6.502;2022-11-15T03:41:39;8.20;99.90
58261;DHT22;44058;52.898;6.502;2022-11-15T03:44:31;8.30;99.90
58261;DHT22;44058;52.898;6.502;2022-11-15T03:47:04;8.30;99.90
58261;DHT22;44058;52.898;6.502;2022-11-15T03:49:34;8.30;99.90
58261;DHT22;44058;52.898;6.502;2022-11-15T03:52:02;8.30;99.90
58261;DHT22;44058;52.898;6.502;2022-11-15T03:54:29;8.40;99.90
58261;DHT22;44058;52.898;6.502;2022-11-15T03:56:55;8.40;99.90
58261;DHT22;44058;52.898;6.502;2022-11-15T03:59:21;8.40;99.90
58261;DHT22;44058;52.898;6.502;2022-11-15T04:01:46;8.40;99.90
58261;DHT22;44058;52.898;6.502;2022-11-15T04:04:12;8.40;99.90
58261;DHT22;44058;52.898;6.502;2022-11-15T04:06:38;8.40;99.90
58261;DHT22;44058;52.898;6.502;2022-11-15T04:09:04;8.50;99.90
58261;DHT22;44058;52.898;6.502;2022-11-15T04:11:30;8.50;99.90
58261;DHT22;44058;52.898;6.502;2022-11-15T04:13:56;8.60;99.90
58261;DHT22;44058;52.898;6.502;2022-11-15T04:16:21;8.60;99.90
58261;DHT22;44058;52.898;6.502;2022-11-15T04:18:47;8.60;99.90
58261;DHT22;44058;52.898;6.502;2022-11-15T04:21:33;8.60;99.90
58261;DHT22;44058;52.898;6.502;2022-11-15T04:24:17;8.60;99.90
58261;DHT22;44058;52.898;6.502;2022-11-15T04:26:42;8.60;99.90
58261;DHT22;44058;52.898;6.502;2022-11-15T04:29:08;8.70;99.90
58261;DHT22;44058;52.898;6.502;2022-11-15T04:31:52;8.70;99.90
58261;DHT22;44058;52.898;6.502;2022-11-15T04:34:18;8.70;99.90
58261;DHT22;44058;52.898;6.502;2022-11-15T04:36:43;8.70;99.90
58261;DHT22;44058;52.898;6.502;2022-11-15T04:39:28;8.70;99.90
58261;DHT22;44058;52.898;6.502;2022-11-15T04:41:53;8.80;99.90
58261;DHT22;44058;52.898;6.502;2022-11-15T04:44:19;8.80;99.90
58261;DHT22;44058;52.898;6.502;2022-11-15T04:46:44;8.80;99.90
58261;DHT22;44058;52.898;6.502;2022-11-15T04:49:10;8.90;99.90
58261;DHT22;44058;52.898;6.502;2022-11-15T04:51:36;8.90;99.90
58261;DHT22;44058;52.898;6.502;2022-11-15T04:54:01;8.90;99.90
58261;DHT22;44058;52.898;6.502;2022-11-15T04:56:27;8.90;99.90
58261;DHT22;44058;52.898;6.502;2022-11-15T04:58:53;8.90;99.90
58261;DHT22;44058;52.898;6.502;2022-11-15T05:01:18;9.00;99.90
58261;DHT22;44058;52.898;6.502;2022-11-15T05:03:44;9.00;99.90
58261;DHT22;44058;52.898;6.502;2022-11-15T05:06:29;9.00;99.90
58261;DHT22;44058;52.898;6.502;2022-11-15T05:08:55;9.00;99.90
58261;DHT22;44058;52.898;6.502;2022-11-15T05:11:21;9.00;99.90
58261;DHT22;44058;52.898;6.502;2022-11-15T05:13:47;9.10;99.90
58261;DHT22;44058;52.898;6.502;2022-11-15T05:16:14;9.10;99.90
58261;DHT22;44058;52.898;6.502;2022-11-15T05:18:39;9.20;99.90
58261;DHT22;44058;52.898;6.502;2022-11-15T05:21:13;9.20;99.90
58261;DHT22;44058;52.898;6.502;2022-11-15T05:23:40;9.20;99.90
58261;DHT22;44058;52.898;6.502;2022-11-15T05:26:07;9.30;99.90
58261;DHT22;44058;52.898;6.502;2022-11-15T05:28:33;9.30;99.90
58261;DHT22;44058;52.898;6.502;2022-11-15T05:31:13;9.40;99.90
58261;DHT22;44058;52.898;6.502;2022-11-15T05:33:39;9.40;99.90
58261;DHT22;44058;52.898;6.502;2022-11-15T05:36:20;9.40;99.90
58261;DHT22;44058;52.898;6.502;2022-11-15T05:38:48;9.50;99.90
58261;DHT22;44058;52.898;6.502;2022-11-15T05:41:15;9.50;99.90
58261;DHT22;44058;52.898;6.502;2022-11-15T05:43:43;9.50;99.90
58261;DHT22;44058;52.898;6.502;2022-11-15T05:46:09;9.60;99.90
58261;DHT22;44058;52.898;6.502;2022-11-15T05:48:36;9.60;99.90
58261;DHT22;44058;52.898;6.502;2022-11-15T05:51:03;9.60;99.90
58261;DHT22;44058;52.898;6.502;2022-11-15T05:53:30;9.70;99.90
58261;DHT22;44058;52.898;6.502;2022-11-15T05:55:56;9.70;99.90
58261;DHT22;44058;52.898;6.502;2022-11-15T05:58:22;9.70;99.90
58261;DHT22;44058;52.898;6.502;2022-11-15T06:00:48;9.80;99.90
58261;DHT22;44058;52.898;6.502;2022-11-15T06:03:14;9.80;99.90
58261;DHT22;44058;52.898;6.502;2022-11-15T06:05:40;9.80;99.90
58261;DHT22;44058;52.898;6.502;2022-11-15T06:08:06;9.80;99.90
58261;DHT22;44058;52.898;6.502;2022-11-15T06:10:32;9.80;99.90
58261;DHT22;44058;52.898;6.502;2022-11-15T06:13:02;9.90;99.90
58261;DHT22;44058;52.898;6.502;2022-11-15T06:15:29;9.90;99.90
58261;DHT22;44058;52.898;6.502;2022-11-15T06:17:58;10.00;99.90
58261;DHT22;44058;52.898;6.502;2022-11-15T06:20:25;10.00;99.90
58261;DHT22;44058;52.898;6.502;2022-11-15T06:22:50;10.00;99.90
58261;DHT22;44058;52.898;6.502;2022-11-15T06:25:16;10.00;99.90
58261;DHT22;44058;52.898;6.502;2022-11-15T06:27:42;10.00;99.90
58261;DHT22;44058;52.898;6.502;2022-11-15T06:30:08;10.10;99.90
58261;DHT22;44058;52.898;6.502;2022-11-15T06:32:33;10.10;99.90
58261;DHT22;44058;52.898;6.502;2022-11-15T06:35:05;10.10;99.90
58261;DHT22;44058;52.898;6.502;2022-11-15T06:37:30;10.20;99.90
58261;DHT22;44058;52.898;6.502;2022-11-15T06:39:56;10.20;99.90
58261;DHT22;44058;52.898;6.502;2022-11-15T06:42:22;10.20;99.90
58261;DHT22;44058;52.898;6.502;2022-11-15T06:44:48;10.30;99.90
58261;DHT22;44058;52.898;6.502;2022-11-15T06:47:13;10.30;99.90
58261;DHT22;44058;52.898;6.502;2022-11-15T06:49:39;10.30;99.90
58261;DHT22;44058;52.898;6.502;2022-11-15T06:52:05;10.30;99.90
58261;DHT22;44058;52.898;6.502;2022-11-15T06:54:31;10.40;99.90
58261;DHT22;44058;52.898;6.502;2022-11-15T06:56:57;10.40;99.90
58261;DHT22;44058;52.898;6.502;2022-11-15T06:59:22;10.40;99.90
58261;DHT22;44058;52.898;6.502;2022-11-15T07:01:49;10.40;99.90
58261;DHT22;44058;52.898;6.502;2022-11-15T07:04:14;10.40;99.90
58261;DHT22;44058;52.898;6.502;2022-11-15T07:06:40;10.50;99.90
58261;DHT22;44058;52.898;6.502;2022-11-15T07:09:06;10.50;99.90
58261;DHT22;44058;52.898;6.502;2022-11-15T07:11:33;10.50;99.90
58261;DHT22;44058;52.898;6.502;2022-11-15T07:13:59;10.50;99.90
58261;DHT22;44058;52.898;6.502;2022-11-15T07:16:26;10.50;99.90
58261;DHT22;44058;52.898;6.502;2022-11-15T07:18:51;10.50;99.90
58261;DHT22;44058;52.898;6.502;2022-11-15T07:21:37;10.50;99.90
58261;DHT22;44058;52.898;6.502;2022-11-15T07:24:03;10.60;99.90
58261;DHT22;44058;52.898;6.502;2022-11-15T07:26:29;10.60;99.90
58261;DHT22;44058;52.898;6.502;2022-11-15T07:28:55;10.60;99.90
58261;DHT22;44058;52.898;6.502;2022-11-15T07:31:20;10.60;99.90
58261;DHT22;44058;52.898;6.502;2022-11-15T07:33:46;10.60;99.90
58261;DHT22;44058;52.898;6.502;2022-11-15T07:36:12;10.70;99.90
58261;DHT22;44058;52.898;6.502;2022-11-15T07:38:37;10.70;99.90
58261;DHT22;44058;52.898;6.502;2022-11-15T07:41:05;10.70;99.90
58261;DHT22;44058;52.898;6.502;2022-11-15T07:43:31;10.70;99.90
58261;DHT22;44058;52.898;6.502;2022-11-15T07:46:04;10.80;99.90
58261;DHT22;44058;52.898;6.502;2022-11-15T07:48:30;10.80;99.90
58261;DHT22;44058;52.898;6.502;2022-11-15T07:50:57;10.80;99.90
58261;DHT22;44058;52.898;6.502;2022-11-15T07:53:23;10.80;99.90
58261;DHT22;44058;52.898;6.502;2022-11-15T07:55:49;10.80;99.90
58261;DHT22;44058;52.898;6.502;2022-11-15T07:58:14;10.80;99.90
58261;DHT22;44058;52.898;6.502;2022-11-15T08:00:40;10.80;99.90
58261;DHT22;44058;52.898;6.502;2022-11-15T08:03:08;10.90;99.90
58261;DHT22;44058;52.898;6.502;2022-11-15T08:05:34;10.90;99.90
58261;DHT22;44058;52.898;6.502;2022-11-15T08:08:00;11.00;99.90
58261;DHT22;44058;52.898;6.502;2022-11-15T08:10:29;10.90;99.90
58261;DHT22;44058;52.898;6.502;2022-11-15T08:13:04;11.00;99.90
58261;DHT22;44058;52.898;6.502;2022-11-15T08:15:31;11.00;99.90
58261;DHT22;44058;52.898;6.502;2022-11-15T08:17:59;11.00;99.90
58261;DHT22;44058;52.898;6.502;2022-11-15T08:20:27;11.10;99.90
58261;DHT22;44058;52.898;6.502;2022-11-15T08:23:00;11.10;99.90
58261;DHT22;44058;52.898;6.502;2022-11-15T08:25:28;11.10;99.90
58261;DHT22;44058;52.898;6.502;2022-11-15T08:27:58;11.10;99.90
58261;DHT22;44058;52.898;6.502;2022-11-15T08:30:40;11.20;99.90
58261;DHT22;44058;52.898;6.502;2022-11-15T08:33:10;11.20;99.90
58261;DHT22;44058;52.898;6.502;2022-11-15T08:35:36;11.20;99.90
58261;DHT22;44058;52.898;6.502;2022-11-15T08:38:02;11.20;99.90
58261;DHT22;44058;52.898;6.502;2022-11-15T08:40:28;11.20;99.90
58261;DHT22;44058;52.898;6.502;2022-11-15T08:42:54;11.30;99.90
58261;DHT22;44058;52.898;6.502;2022-11-15T08:45:19;11.30;99.90
58261;DHT22;44058;52.898;6.502;2022-11-15T08:47:45;11.30;99.90
58261;DHT22;44058;52.898;6.502;2022-11-15T08:50:11;11.30;99.90
58261;DHT22;44058;52.898;6.502;2022-11-15T08:52:36;11.30;99.90
58261;DHT22;44058;52.898;6.502;2022-11-15T08:55:02;11.30;99.90
58261;DHT22;44058;52.898;6.502;2022-11-15T08:57:29;11.40;99.90
58261;DHT22;44058;52.898;6.502;2022-11-15T08:59:58;11.40;99.90
58261;DHT22;44058;52.898;6.502;2022-11-15T09:02:23;11.40;99.90
58261;DHT22;44058;52.898;6.502;2022-11-15T09:04:49;11.40;99.90
58261;DHT22;44058;52.898;6.502;2022-11-15T09:07:15;11.50;99.90
58261;DHT22;44058;52.898;6.502;2022-11-15T09:09:40;11.50;99.90
58261;DHT22;44058;52.898;6.502;2022-11-15T09:12:07;11.50;99.90
58261;DHT22;44058;52.898;6.502;2022-11-15T09:14:33;11.50;99.90
58261;DHT22;44058;52.898;6.502;2022-11-15T09:16:59;11.50;99.90
58261;DHT22;44058;52.898;6.502;2022-11-15T09:19:25;11.50;99.90
58261;DHT22;44058;52.898;6.502;2022-11-15T09:21:51;11.60;99.90
58261;DHT22;44058;52.898;6.502;2022-11-15T09:24:17;11.60;99.90
58261;DHT22;44058;52.898;6.502;2022-11-15T09:26:43;11.60;99.90
58261;DHT22;44058;52.898;6.502;2022-11-15T09:29:09;11.60;99.90
58261;DHT22;44058;52.898;6.502;2022-11-15T09:31:34;11.60;99.90
58261;DHT22;44058;52.898;6.502;2022-11-15T09:34:00;11.60;99.90
58261;DHT22;44058;52.898;6.502;2022-11-15T09:36:26;11.60;99.90
58261;DHT22;44058;52.898;6.502;2022-11-15T09:38:52;11.70;99.90
58261;DHT22;44058;52.898;6.502;2022-11-15T09:47:03;11.80;99.90
58261;DHT22;44058;52.898;6.502;2022-11-15T09:49:31;11.80;99.90
58261;DHT22;44058;52.898;6.502;2022-11-15T09:51:57;11.80;99.90
58261;DHT22;44058;52.898;6.502;2022-11-15T09:54:32;11.80;99.90
58261;DHT22;44058;52.898;6.502;2022-11-15T09:57:12;11.80;99.90
58261;DHT22;44058;52.898;6.502;2022-11-15T10:04:51;11.90;99.90
58261;DHT22;44058;52.898;6.502;2022-11-15T10:12:51;11.90;99.90
58261;DHT22;44058;52.898;6.502;2022-11-15T10:15:18;11.90;99.90
58261;DHT22;44058;52.898;6.502;2022-11-15T10:20:49;11.90;99.90
58261;DHT22;44058;52.898;6.502;2022-11-15T10:23:21;12.00;99.90
58261;DHT22;44058;52.898;6.502;2022-11-15T10:25:47;12.00;99.90
58261;DHT22;44058;52.898;6.502;2022-11-15T10:28:27;12.00;99.90
58261;DHT22;44058;52.898;6.502;2022-11-15T10:30:55;12.10;99.90
58261;DHT22;44058;52.898;6.502;2022-11-15T10:33:29;12.10;99.90
58261;DHT22;44058;52.898;6.502;2022-11-15T10:38:55;12.20;99.90
58261;DHT22;44058;52.898;6.502;2022-11-15T10:46:44;12.20;99.90
58261;DHT22;44058;52.898;6.502;2022-11-15T10:49:24;12.20;99.90
58261;DHT22;44058;52.898;6.502;2022-11-15T10:54:41;12.30;99.90
58261;DHT22;44058;52.898;6.502;2022-11-15T10:57:14;12.40;99.90
58261;DHT22;44058;52.898;6.502;2022-11-15T10:59:45;12.50;99.90
58261;DHT22;44058;52.898;6.502;2022-11-15T11:02:31;12.60;99.90
58261;DHT22;44058;52.898;6.502;2022-11-15T11:04:57;12.60;99.90
58261;DHT22;44058;52.898;6.502;2022-11-15T11:07:26;12.70;99.90
58261;DHT22;44058;52.898;6.502;2022-11-15T11:10:21;12.90;99.90
58261;DHT22;44058;52.898;6.502;2022-11-15T11:12:46;13.00;99.90
58261;DHT22;44058;52.898;6.502;2022-11-15T11:15:14;13.20;99.90
58261;DHT22;44058;52.898;6.502;2022-11-15T11:18:04;13.30;99.90
58261;DHT22;44058;52.898;6.502;2022-11-15T11:21:02;13.30;99.90
58261;DHT22;44058;52.898;6.502;2022-11-15T11:24:14;13.30;99.90
58261;DHT22;44058;52.898;6.502;2022-11-15T11:29:38;13.10;99.90
58261;DHT22;44058;52.898;6.502;2022-11-15T11:32:23;13.00;99.90
58261;DHT22;44058;52.898;6.502;2022-11-15T11:35:29;12.90;99.90
58261;DHT22;44058;52.898;6.502;2022-11-15T11:44:05;12.70;99.90
58261;DHT22;44058;52.898;6.502;2022-11-15T11:49:31;12.60;99.90
58261;DHT22;44058;52.898;6.502;2022-11-15T11:54:58;12.60;99.90
58261;DHT22;44058;52.898;6.502;2022-11-15T11:57:41;12.50;99.90
58261;DHT22;44058;52.898;6.502;2022-11-15T12:05:34;12.40;99.90
58261;DHT22;44058;52.898;6.502;2022-11-15T12:08:25;12.50;99.90
58261;DHT22;44058;52.898;6.502;2022-11-15T12:13:32;12.70;99.90
58261;DHT22;44058;52.898;6.502;2022-11-15T12:18:47;12.80;99.90
58261;DHT22;44058;52.898;6.502;2022-11-15T12:24:08;13.20;99.90
58261;DHT22;44058;52.898;6.502;2022-11-15T12:26:40;13.40;99.90
58261;DHT22;44058;52.898;6.502;2022-11-15T12:29:16;13.60;99.90
58261;DHT22;44058;52.898;6.502;2022-11-15T12:31:48;13.70;99.90
58261;DHT22;44058;52.898;6.502;2022-11-15T12:36:46;13.80;99.90
58261;DHT22;44058;52.898;6.502;2022-11-15T12:39:14;13.90;99.90
58261;DHT22;44058;52.898;6.502;2022-11-15T12:47:21;13.60;99.90
58261;DHT22;44058;52.898;6.502;2022-11-15T12:49:48;13.50;99.90
58261;DHT22;44058;52.898;6.502;2022-11-15T12:52:14;13.30;99.90
58261;DHT22;44058;52.898;6.502;2022-11-15T13:02:43;13.30;99.90
58261;DHT22;44058;52.898;6.502;2022-11-15T13:22:49;13.50;99.90
58261;DHT22;44058;52.898;6.502;2022-11-15T13:30:55;13.40;99.90
58261;DHT22;44058;52.898;6.502;2022-11-15T13:33:33;13.40;99.90
58261;DHT22;44058;52.898;6.502;2022-11-15T13:36:12;13.30;99.90
58261;DHT22;44058;52.898;6.502;2022-11-15T13:38:42;13.20;99.90
58261;DHT22;44058;52.898;6.502;2022-11-15T13:43:43;13.10;99.90
58261;DHT22;44058;52.898;6.502;2022-11-15T13:46:22;13.10;99.90
58261;DHT22;44058;52.898;6.502;2022-11-15T13:49:09;13.10;99.90
58261;DHT22;44058;52.898;6.502;2022-11-15T13:51:49;13.00;99.90
58261;DHT22;44058;52.898;6.502;2022-11-15T13:54:42;13.00;99.90
58261;DHT22;44058;52.898;6.502;2022-11-15T13:59:54;12.90;99.90
58261;DHT22;44058;52.898;6.502;2022-11-15T14:02:26;12.90;99.90
58261;DHT22;44058;52.898;6.502;2022-11-15T14:05:17;12.90;99.90
58261;DHT22;44058;52.898;6.502;2022-11-15T14:08:02;12.80;99.90
58261;DHT22;44058;52.898;6.502;2022-11-15T14:10:30;12.70;99.90
58261;DHT22;44058;52.898;6.502;2022-11-15T14:12:57;12.70;99.90
58261;DHT22;44058;52.898;6.502;2022-11-15T14:15:32;12.70;99.90
58261;DHT22;44058;52.898;6.502;2022-11-15T14:17:59;12.70;99.90
58261;DHT22;44058;52.898;6.502;2022-11-15T14:22:53;12.60;99.90
58261;DHT22;44058;52.898;6.502;2022-11-15T14:25:21;12.60;99.90
58261;DHT22;44058;52.898;6.502;2022-11-15T14:30:32;12.60;99.90
58261;DHT22;44058;52.898;6.502;2022-11-15T14:32:58;12.40;99.90
58261;DHT22;44058;52.898;6.502;2022-11-15T14:35:24;12.40;99.90
58261;DHT22;44058;52.898;6.502;2022-11-15T14:37:49;12.30;99.90
58261;DHT22;44058;52.898;6.502;2022-11-15T14:40:20;12.40;99.90
58261;DHT22;44058;52.898;6.502;2022-11-15T14:42:47;12.30;99.90
58261;DHT22;44058;52.898;6.502;2022-11-15T14:45:19;12.30;99.90
58261;DHT22;44058;52.898;6.502;2022-11-15T14:47:45;12.30;99.90
58261;DHT22;44058;52.898;6.502;2022-11-15T14:50:15;12.30;99.90
58261;DHT22;44058;52.898;6.502;2022-11-15T14:52:41;12.30;99.90
58261;DHT22;44058;52.898;6.502;2022-11-15T14:55:29;12.20;99.90
58261;DHT22;44058;52.898;6.502;2022-11-15T14:57:57;12.10;99.90
58261;DHT22;44058;52.898;6.502;2022-11-15T15:00:24;12.10;99.90
58261;DHT22;44058;52.898;6.502;2022-11-15T15:02:52;12.10;99.90
58261;DHT22;44058;52.898;6.502;2022-11-15T15:07:44;12.00;99.90
58261;DHT22;44058;52.898;6.502;2022-11-15T15:10:10;11.90;99.90
58261;DHT22;44058;52.898;6.502;2022-11-15T15:12:36;12.00;99.90
58261;DHT22;44058;52.898;6.502;2022-11-15T15:15:02;12.00;99.90
58261;DHT22;44058;52.898;6.502;2022-11-15T15:17:27;12.00;99.90
58261;DHT22;44058;52.898;6.502;2022-11-15T15:19:53;11.90;99.90
58261;DHT22;44058;52.898;6.502;2022-11-15T15:22:20;11.90;99.90
58261;DHT22;44058;52.898;6.502;2022-11-15T15:24:48;11.90;99.90
58261;DHT22;44058;52.898;6.502;2022-11-15T15:27:14;11.90;99.90
58261;DHT22;44058;52.898;6.502;2022-11-15T15:29:40;11.90;99.90
58261;DHT22;44058;52.898;6.502;2022-11-15T15:32:06;11.90;99.90
58261;DHT22;44058;52.898;6.502;2022-11-15T15:34:32;11.90;99.90
58261;DHT22;44058;52.898;6.502;2022-11-15T15:39:34;11.80;99.90
58261;DHT22;44058;52.898;6.502;2022-11-15T15:41:59;11.80;99.90
58261;DHT22;44058;52.898;6.502;2022-11-15T15:44:25;11.80;99.90
58261;DHT22;44058;52.898;6.502;2022-11-15T15:46:50;11.80;99.90
58261;DHT22;44058;52.898;6.502;2022-11-15T15:49:16;11.80;99.90
58261;DHT22;44058;52.898;6.502;2022-11-15T15:51:42;11.80;99.90
58261;DHT22;44058;52.898;6.502;2022-11-15T15:54:09;11.70;99.90
58261;DHT22;44058;52.898;6.502;2022-11-15T15:56:34;11.70;99.90
58261;DHT22;44058;52.898;6.502;2022-11-15T15:59:00;11.70;99.90
58261;DHT22;44058;52.898;6.502;2022-11-15T16:01:26;11.70;99.90
58261;DHT22;44058;52.898;6.502;2022-11-15T16:03:51;11.60;99.90
58261;DHT22;44058;52.898;6.502;2022-11-15T16:06:33;11.60;99.90
58261;DHT22;44058;52.898;6.502;2022-11-15T16:09:00;11.60;99.90
58261;DHT22;44058;52.898;6.502;2022-11-15T16:11:26;11.60;99.90
58261;DHT22;44058;52.898;6.502;2022-11-15T16:13:51;11.60;99.90
58261;DHT22;44058;52.898;6.502;2022-11-15T16:16:17;11.50;99.90
58261;DHT22;44058;52.898;6.502;2022-11-15T16:18:43;11.50;99.90
58261;DHT22;44058;52.898;6.502;2022-11-15T16:21:09;11.50;99.90
58261;DHT22;44058;52.898;6.502;2022-11-15T16:23:35;11.50;99.90
58261;DHT22;44058;52.898;6.502;2022-11-15T16:26:00;11.50;99.90
58261;DHT22;44058;52.898;6.502;2022-11-15T16:28:32;11.50;99.90
58261;DHT22;44058;52.898;6.502;2022-11-15T16:31:08;11.50;99.90
58261;DHT22;44058;52.898;6.502;2022-11-15T16:33:34;11.50;99.90
58261;DHT22;44058;52.898;6.502;2022-11-15T16:36:00;11.50;99.90
58261;DHT22;44058;52.898;6.502;2022-11-15T16:38:26;11.50;99.90
58261;DHT22;44058;52.898;6.502;2022-11-15T16:40:52;11.50;99.90
58261;DHT22;44058;52.898;6.502;2022-11-15T16:43:17;11.60;99.90
58261;DHT22;44058;52.898;6.502;2022-11-15T16:45:43;11.50;99.90
58261;DHT22;44058;52.898;6.502;2022-11-15T16:48:27;11.60;99.90
58261;DHT22;44058;52.898;6.502;2022-11-15T16:50:59;11.60;99.90
58261;DHT22;44058;52.898;6.502;2022-11-15T16:53:25;11.60;99.90
58261;DHT22;44058;52.898;6.502;2022-11-15T16:55:51;11.60;99.90
58261;DHT22;44058;52.898;6.502;2022-11-15T16:58:17;11.60;99.90
58261;DHT22;44058;52.898;6.502;2022-11-15T17:00:43;11.60;99.90
58261;DHT22;44058;52.898;6.502;2022-11-15T17:03:08;11.70;99.90
58261;DHT22;44058;52.898;6.502;2022-11-15T17:05:34;11.70;99.90
58261;DHT22;44058;52.898;6.502;2022-11-15T17:08:00;11.70;99.90
58261;DHT22;44058;52.898;6.502;2022-11-15T17:10:26;11.70;99.90
58261;DHT22;44058;52.898;6.502;2022-11-15T17:12:53;11.70;99.90
58261;DHT22;44058;52.898;6.502;2022-11-15T17:15:19;11.70;99.90
58261;DHT22;44058;52.898;6.502;2022-11-15T17:17:51;11.70;99.90
58261;DHT22;44058;52.898;6.502;2022-11-15T17:20:18;11.70;99.90
58261;DHT22;44058;52.898;6.502;2022-11-15T17:22:44;11.80;99.90
58261;DHT22;44058;52.898;6.502;2022-11-15T17:25:12;11.80;99.90
58261;DHT22;44058;52.898;6.502;2022-11-15T17:27:38;11.80;99.90
58261;DHT22;44058;52.898;6.502;2022-11-15T17:30:04;11.70;99.90
58261;DHT22;44058;52.898;6.502;2022-11-15T17:32:34;11.80;99.90
58261;DHT22;44058;52.898;6.502;2022-11-15T17:34:59;11.70;99.90
58261;DHT22;44058;52.898;6.502;2022-11-15T17:37:25;11.70;99.90
58261;DHT22;44058;52.898;6.502;2022-11-15T17:39:50;11.80;99.90
58261;DHT22;44058;52.898;6.502;2022-11-15T17:42:16;11.70;99.90
58261;DHT22;44058;52.898;6.502;2022-11-15T17:44:42;11.80;99.90
58261;DHT22;44058;52.898;6.502;2022-11-15T17:47:08;11.80;99.90
58261;DHT22;44058;52.898;6.502;2022-11-15T17:49:33;11.80;99.90
58261;DHT22;44058;52.898;6.502;2022-11-15T17:52:04;11.80;99.90
58261;DHT22;44058;52.898;6.502;2022-11-15T17:54:30;11.80;99.90
58261;DHT22;44058;52.898;6.502;2022-11-15T17:56:55;11.80;99.90
58261;DHT22;44058;52.898;6.502;2022-11-15T17:59:21;11.80;99.90
58261;DHT22;44058;52.898;6.502;2022-11-15T18:01:47;11.80;99.90
58261;DHT22;44058;52.898;6.502;2022-11-15T18:04:12;11.80;99.90
58261;DHT22;44058;52.898;6.502;2022-11-15T18:06:40;11.80;99.90
58261;DHT22;44058;52.898;6.502;2022-11-15T18:09:06;11.80;99.90
58261;DHT22;44058;52.898;6.502;2022-11-15T18:11:37;11.80;99.90